Main page
METAR-TAF:

METAR-TAF

Airports :

Gloucester, England

Gloucestershire Airport

latitude: 51-54N, longitude: 002-10W, elevation: 29 m

Current weather observation

The report was made 14 hours and 19 minutes ago, at 17:50 UTC
Wind 5 kt from the East
Temperature 5°C
Humidity 75%
Pressure 1025 hPa
Visibility 10 km or more
Few clouds at a height of 4000 ft

METAR: EGBJ 031750Z 09005KT 9999 FEW040 05/01 Q1025

Time: 08:09 (08:09 UTC)

Forecast

The report was made 18 hours and 13 minutes ago, at 13:56 UTC
Forecast valid from 03 at 15 UTC to 03 at 19 UTC
Wind 6 kt from the East/Northeast
Visibility 10 km or more
Scattered clouds at a height of 3500 ft

TAF: EGBJ 031356Z 0315/0319 07006KT 9999 SCT035

Weather observations and forecasts of more than 4000 airports (METAR and TAF reports).

The available stations are represented by yellow and red dots on the map.

Hover mouse over dot to see the name of the station.

Then click to see weather observations and forecasts.

To change the map : click on the green buttons with a black cross to zoom in, on the green button with a dash to zoom out, or on the green arrows for adjacent maps.


METAR-TAF: